sensor_id;sensor_type;location;lat;lon;timestamp;P1;durP1;ratioP1;P2;durP2;ratioP2
7747;SDS011;3918;42.564;23.164;2023-05-27T04:01:17;9.13;;;8.27;;
7747;SDS011;3918;42.564;23.164;2023-05-27T04:03:45;7.72;;;7.22;;
7747;SDS011;3918;42.564;23.164;2023-05-27T04:06:12;7.80;;;7.30;;
7747;SDS011;3918;42.564;23.164;2023-05-27T04:08:39;7.00;;;6.60;;
7747;SDS011;3918;42.564;23.164;2023-05-27T04:11:09;7.10;;;6.70;;
7747;SDS011;3918;42.564;23.164;2023-05-27T04:13:37;7.28;;;6.60;;
7747;SDS011;3918;42.564;23.164;2023-05-27T04:16:04;7.63;;;7.03;;
7747;SDS011;3918;42.564;23.164;2023-05-27T04:18:33;7.35;;;6.85;;
7747;SDS011;3918;42.564;23.164;2023-05-27T04:21:01;8.57;;;8.15;;
7747;SDS011;3918;42.564;23.164;2023-05-27T04:23:29;6.00;;;5.45;;
7747;SDS011;3918;42.564;23.164;2023-05-27T04:25:56;6.03;;;5.57;;
7747;SDS011;3918;42.564;23.164;2023-05-27T04:28:23;5.97;;;5.68;;
7747;SDS011;3918;42.564;23.164;2023-05-27T04:30:49;5.22;;;4.93;;
7747;SDS011;3918;42.564;23.164;2023-05-27T04:33:18;5.20;;;4.90;;
7747;SDS011;3918;42.564;23.164;2023-05-27T04:35:48;4.78;;;4.32;;
7747;SDS011;3918;42.564;23.164;2023-05-27T04:38:18;4.68;;;4.38;;
7747;SDS011;3918;42.564;23.164;2023-05-27T04:40:46;5.10;;;4.82;;
7747;SDS011;3918;42.564;23.164;2023-05-27T04:43:17;4.63;;;4.40;;
7747;SDS011;3918;42.564;23.164;2023-05-27T04:45:44;4.25;;;3.92;;
7747;SDS011;3918;42.564;23.164;2023-05-27T04:48:11;3.10;;;2.92;;
7747;SDS011;3918;42.564;23.164;2023-05-27T04:50:38;3.30;;;3.10;;
7747;SDS011;3918;42.564;23.164;2023-05-27T04:53:07;7.72;;;3.17;;
7747;SDS011;3918;42.564;23.164;2023-05-27T04:55:34;3.72;;;2.85;;
7747;SDS011;3918;42.564;23.164;2023-05-27T04:58:02;2.28;;;2.15;;
7747;SDS011;3918;42.564;23.164;2023-05-27T05:00:29;3.05;;;2.00;;
7747;SDS011;3918;42.564;23.164;2023-05-27T05:03:14;2.90;;;2.70;;
7747;SDS011;3918;42.564;23.164;2023-05-27T05:05:46;2.42;;;2.22;;
7747;SDS011;3918;42.564;23.164;2023-05-27T05:08:15;3.60;;;1.95;;
7747;SDS011;3918;42.564;23.164;2023-05-27T05:10:42;3.22;;;2.30;;
7747;SDS011;3918;42.564;23.164;2023-05-27T05:13:08;2.58;;;1.88;;
7747;SDS011;3918;42.564;23.164;2023-05-27T05:15:35;3.63;;;2.70;;
7747;SDS011;3918;42.564;23.164;2023-05-27T05:18:02;6.32;;;2.70;;
7747;SDS011;3918;42.564;23.164;2023-05-27T05:20:29;2.78;;;2.58;;
7747;SDS011;3918;42.564;23.164;2023-05-27T05:22:56;5.50;;;2.58;;
7747;SDS011;3918;42.564;23.164;2023-05-27T05:25:24;7.72;;;2.80;;
7747;SDS011;3918;42.564;23.164;2023-05-27T05:27:51;3.30;;;2.47;;
7747;SDS011;3918;42.564;23.164;2023-05-27T05:30:18;6.63;;;2.50;;
7747;SDS011;3918;42.564;23.164;2023-05-27T05:32:45;3.50;;;2.83;;
7747;SDS011;3918;42.564;23.164;2023-05-27T05:35:12;5.43;;;2.45;;
7747;SDS011;3918;42.564;23.164;2023-05-27T05:37:39;3.58;;;2.90;;
7747;SDS011;3918;42.564;23.164;2023-05-27T05:40:06;2.90;;;2.70;;
7747;SDS011;3918;42.564;23.164;2023-05-27T05:42:35;2.95;;;2.75;;
7747;SDS011;3918;42.564;23.164;2023-05-27T05:45:01;2.72;;;2.53;;
7747;SDS011;3918;42.564;23.164;2023-05-27T05:47:29;4.78;;;3.17;;
7747;SDS011;3918;42.564;23.164;2023-05-27T05:49:58;4.50;;;3.13;;
7747;SDS011;3918;42.564;23.164;2023-05-27T05:52:24;5.47;;;3.40;;
7747;SDS011;3918;42.564;23.164;2023-05-27T05:54:52;5.65;;;3.95;;
7747;SDS011;3918;42.564;23.164;2023-05-27T05:57:18;6.43;;;3.88;;
7747;SDS011;3918;42.564;23.164;2023-05-27T05:59:47;3.97;;;3.30;;
7747;SDS011;3918;42.564;23.164;2023-05-27T06:02:13;4.90;;;3.85;;
7747;SDS011;3918;42.564;23.164;2023-05-27T06:04:40;9.20;;;4.03;;
7747;SDS011;3918;42.564;23.164;2023-05-27T06:07:07;8.15;;;4.60;;
7747;SDS011;3918;42.564;23.164;2023-05-27T06:09:34;5.25;;;4.70;;
7747;SDS011;3918;42.564;23.164;2023-05-27T06:12:00;12.63;;;5.07;;
7747;SDS011;3918;42.564;23.164;2023-05-27T06:14:27;6.80;;;4.75;;
7747;SDS011;3918;42.564;23.164;2023-05-27T06:16:57;5.97;;;4.47;;
7747;SDS011;3918;42.564;23.164;2023-05-27T06:19:24;10.95;;;5.28;;
7747;SDS011;3918;42.564;23.164;2023-05-27T06:21:51;12.98;;;6.13;;
7747;SDS011;3918;42.564;23.164;2023-05-27T06:24:18;7.55;;;5.20;;
7747;SDS011;3918;42.564;23.164;2023-05-27T06:26:45;8.43;;;5.25;;
7747;SDS011;3918;42.564;23.164;2023-05-27T06:29:14;9.57;;;5.07;;
7747;SDS011;3918;42.564;23.164;2023-05-27T06:31:40;17.75;;;4.90;;
7747;SDS011;3918;42.564;23.164;2023-05-27T06:34:08;8.80;;;3.83;;
7747;SDS011;3918;42.564;23.164;2023-05-27T06:36:35;4.20;;;3.80;;
7747;SDS011;3918;42.564;23.164;2023-05-27T06:39:05;12.23;;;3.58;;
7747;SDS011;3918;42.564;23.164;2023-05-27T06:41:32;4.15;;;3.75;;
7747;SDS011;3918;42.564;23.164;2023-05-27T06:43:59;4.22;;;3.55;;
7747;SDS011;3918;42.564;23.164;2023-05-27T06:46:26;8.43;;;3.72;;
7747;SDS011;3918;42.564;23.164;2023-05-27T06:48:52;21.83;;;4.68;;
7747;SDS011;3918;42.564;23.164;2023-05-27T06:51:21;7.22;;;3.50;;
7747;SDS011;3918;42.564;23.164;2023-05-27T06:53:48;5.90;;;3.45;;
7747;SDS011;3918;42.564;23.164;2023-05-27T06:56:15;4.18;;;2.97;;
7747;SDS011;3918;42.564;23.164;2023-05-27T06:58:42;3.80;;;3.47;;
7747;SDS011;3918;42.564;23.164;2023-05-27T07:01:09;3.30;;;3.00;;
7747;SDS011;3918;42.564;23.164;2023-05-27T07:03:36;7.35;;;3.03;;
7747;SDS011;3918;42.564;23.164;2023-05-27T07:06:03;2.90;;;2.70;;
7747;SDS011;3918;42.564;23.164;2023-05-27T07:08:34;3.35;;;3.05;;
7747;SDS011;3918;42.564;23.164;2023-05-27T07:11:01;5.93;;;3.03;;
7747;SDS011;3918;42.564;23.164;2023-05-27T07:13:28;7.32;;;3.28;;
7747;SDS011;3918;42.564;23.164;2023-05-27T07:15:55;5.15;;;2.67;;
7747;SDS011;3918;42.564;23.164;2023-05-27T07:18:25;3.50;;;2.67;;
7747;SDS011;3918;42.564;23.164;2023-05-27T07:20:55;5.35;;;2.70;;
7747;SDS011;3918;42.564;23.164;2023-05-27T07:23:23;3.30;;;2.83;;
7747;SDS011;3918;42.564;23.164;2023-05-27T07:25:51;7.80;;;3.00;;
7747;SDS011;3918;42.564;23.164;2023-05-27T07:28:18;5.18;;;3.15;;
7747;SDS011;3918;42.564;23.164;2023-05-27T07:30:44;7.47;;;3.08;;
7747;SDS011;3918;42.564;23.164;2023-05-27T07:33:11;3.72;;;3.40;;
7747;SDS011;3918;42.564;23.164;2023-05-27T07:35:39;2.90;;;2.70;;
7747;SDS011;3918;42.564;23.164;2023-05-27T07:38:06;4.30;;;2.80;;
7747;SDS011;3918;42.564;23.164;2023-05-27T07:40:33;2.97;;;2.67;;
7747;SDS011;3918;42.564;23.164;2023-05-27T07:43:01;7.40;;;3.17;;
7747;SDS011;3918;42.564;23.164;2023-05-27T07:45:28;2.85;;;2.60;;
7747;SDS011;3918;42.564;23.164;2023-05-27T07:47:55;2.78;;;2.25;;
7747;SDS011;3918;42.564;23.164;2023-05-27T07:50:22;3.20;;;2.92;;
7747;SDS011;3918;42.564;23.164;2023-05-27T07:52:49;5.18;;;2.72;;
7747;SDS011;3918;42.564;23.164;2023-05-27T07:55:16;3.22;;;2.75;;
7747;SDS011;3918;42.564;23.164;2023-05-27T07:57:43;3.00;;;2.80;;
7747;SDS011;3918;42.564;23.164;2023-05-27T08:00:11;3.15;;;2.50;;
7747;SDS011;3918;42.564;23.164;2023-05-27T08:02:38;3.65;;;2.88;;
7747;SDS011;3918;42.564;23.164;2023-05-27T08:05:07;4.75;;;2.88;;
7747;SDS011;3918;42.564;23.164;2023-05-27T08:07:34;3.97;;;2.85;;
7747;SDS011;3918;42.564;23.164;2023-05-27T08:10:01;3.63;;;2.60;;
7747;SDS011;3918;42.564;23.164;2023-05-27T08:12:29;9.10;;;2.90;;
7747;SDS011;3918;42.564;23.164;2023-05-27T08:14:55;13.52;;;3.55;;
7747;SDS011;3918;42.564;23.164;2023-05-27T08:17:23;7.75;;;2.88;;
7747;SDS011;3918;42.564;23.164;2023-05-27T08:19:50;7.28;;;2.75;;
7747;SDS011;3918;42.564;23.164;2023-05-27T08:22:17;5.07;;;2.45;;
7747;SDS011;3918;42.564;23.164;2023-05-27T08:24:44;14.70;;;3.08;;
7747;SDS011;3918;42.564;23.164;2023-05-27T08:27:12;6.60;;;2.90;;
7747;SDS011;3918;42.564;23.164;2023-05-27T08:29:40;2.45;;;2.30;;
7747;SDS011;3918;42.564;23.164;2023-05-27T08:32:07;5.25;;;3.00;;
7747;SDS011;3918;42.564;23.164;2023-05-27T08:34:35;2.58;;;2.38;;
7747;SDS011;3918;42.564;23.164;2023-05-27T08:37:02;3.33;;;2.85;;
7747;SDS011;3918;42.564;23.164;2023-05-27T08:39:30;3.55;;;3.00;;
7747;SDS011;3918;42.564;23.164;2023-05-27T08:41:57;7.93;;;2.83;;
7747;SDS011;3918;42.564;23.164;2023-05-27T08:44:27;13.35;;;3.40;;
7747;SDS011;3918;42.564;23.164;2023-05-27T08:46:54;3.28;;;2.55;;
7747;SDS011;3918;42.564;23.164;2023-05-27T08:49:21;3.65;;;2.70;;
7747;SDS011;3918;42.564;23.164;2023-05-27T08:51:50;4.00;;;2.95;;
7747;SDS011;3918;42.564;23.164;2023-05-27T08:54:17;3.70;;;3.25;;
7747;SDS011;3918;42.564;23.164;2023-05-27T08:56:46;3.60;;;3.30;;
7747;SDS011;3918;42.564;23.164;2023-05-27T08:59:15;6.03;;;3.15;;
7747;SDS011;3918;42.564;23.164;2023-05-27T09:01:42;2.92;;;2.67;;
7747;SDS011;3918;42.564;23.164;2023-05-27T09:04:09;3.88;;;3.20;;
7747;SDS011;3918;42.564;23.164;2023-05-27T09:06:36;7.72;;;3.33;;
7747;SDS011;3918;42.564;23.164;2023-05-27T09:09:06;6.47;;;3.40;;
7747;SDS011;3918;42.564;23.164;2023-05-27T09:11:33;5.63;;;3.28;;
7747;SDS011;3918;42.564;23.164;2023-05-27T09:14:01;11.25;;;4.15;;
7747;SDS011;3918;42.564;23.164;2023-05-27T09:16:28;3.28;;;3.08;;
7747;SDS011;3918;42.564;23.164;2023-05-27T09:18:54;5.03;;;3.40;;
7747;SDS011;3918;42.564;23.164;2023-05-27T09:21:23;2.80;;;2.33;;
7747;SDS011;3918;42.564;23.164;2023-05-27T09:23:54;3.80;;;3.05;;
7747;SDS011;3918;42.564;23.164;2023-05-27T09:26:23;8.77;;;4.32;;
7747;SDS011;3918;42.564;23.164;2023-05-27T09:28:50;4.38;;;2.55;;
7747;SDS011;3918;42.564;23.164;2023-05-27T09:31:17;4.50;;;3.30;;
7747;SDS011;3918;42.564;23.164;2023-05-27T09:33:44;4.25;;;3.72;;
7747;SDS011;3918;42.564;23.164;2023-05-27T09:36:10;3.72;;;3.42;;
7747;SDS011;3918;42.564;23.164;2023-05-27T09:38:37;3.63;;;3.30;;
7747;SDS011;3918;42.564;23.164;2023-05-27T09:41:04;4.80;;;3.25;;
7747;SDS011;3918;42.564;23.164;2023-05-27T09:43:32;3.95;;;3.25;;
7747;SDS011;3918;42.564;23.164;2023-05-27T09:46:00;6.75;;;3.63;;
7747;SDS011;3918;42.564;23.164;2023-05-27T09:48:28;4.40;;;2.30;;
7747;SDS011;3918;42.564;23.164;2023-05-27T09:50:57;4.10;;;3.05;;
7747;SDS011;3918;42.564;23.164;2023-05-27T09:53:25;6.13;;;3.35;;
7747;SDS011;3918;42.564;23.164;2023-05-27T09:55:52;3.90;;;3.58;;
7747;SDS011;3918;42.564;23.164;2023-05-27T09:58:20;4.13;;;3.35;;
7747;SDS011;3918;42.564;23.164;2023-05-27T10:00:48;4.50;;;3.30;;
7747;SDS011;3918;42.564;23.164;2023-05-27T10:03:16;8.32;;;3.38;;
7747;SDS011;3918;42.564;23.164;2023-05-27T10:05:43;3.38;;;3.08;;
7747;SDS011;3918;42.564;23.164;2023-05-27T10:08:10;3.47;;;3.08;;
7747;SDS011;3918;42.564;23.164;2023-05-27T10:10:38;4.28;;;3.30;;
7747;SDS011;3918;42.564;23.164;2023-05-27T10:13:05;3.40;;;3.10;;
7747;SDS011;3918;42.564;23.164;2023-05-27T10:15:33;4.05;;;3.60;;
7747;SDS011;3918;42.564;23.164;2023-05-27T10:18:03;5.93;;;3.42;;
7747;SDS011;3918;42.564;23.164;2023-05-27T10:20:35;4.57;;;3.40;;
7747;SDS011;3918;42.564;23.164;2023-05-27T10:23:09;5.53;;;3.45;;
7747;SDS011;3918;42.564;23.164;2023-05-27T10:25:38;4.90;;;4.18;;
7747;SDS011;3918;42.564;23.164;2023-05-27T10:28:05;3.30;;;2.28;;
7747;SDS011;3918;42.564;23.164;2023-05-27T10:30:42;3.17;;;2.88;;
7747;SDS011;3918;42.564;23.164;2023-05-27T10:33:12;4.15;;;3.42;;
7747;SDS011;3918;42.564;23.164;2023-05-27T10:35:39;4.00;;;3.53;;
7747;SDS011;3918;42.564;23.164;2023-05-27T10:38:16;3.70;;;3.15;;
7747;SDS011;3918;42.564;23.164;2023-05-27T10:40:45;10.32;;;2.85;;
7747;SDS011;3918;42.564;23.164;2023-05-27T10:43:15;5.85;;;3.78;;
7747;SDS011;3918;42.564;23.164;2023-05-27T10:45:43;3.60;;;3.17;;
7747;SDS011;3918;42.564;23.164;2023-05-27T10:48:18;4.15;;;3.38;;
7747;SDS011;3918;42.564;23.164;2023-05-27T10:50:49;5.30;;;4.30;;
7747;SDS011;3918;42.564;23.164;2023-05-27T10:53:18;5.13;;;3.35;;
7747;SDS011;3918;42.564;23.164;2023-05-27T10:55:45;6.10;;;4.13;;
7747;SDS011;3918;42.564;23.164;2023-05-27T10:58:15;3.15;;;2.92;;
7747;SDS011;3918;42.564;23.164;2023-05-27T11:00:42;4.28;;;3.70;;
7747;SDS011;3918;42.564;23.164;2023-05-27T11:03:16;4.80;;;3.67;;
7747;SDS011;3918;42.564;23.164;2023-05-27T11:05:44;4.55;;;3.22;;
7747;SDS011;3918;42.564;23.164;2023-05-27T11:08:11;3.95;;;3.65;;
7747;SDS011;3918;42.564;23.164;2023-05-27T11:10:39;5.90;;;4.40;;
7747;SDS011;3918;42.564;23.164;2023-05-27T11:13:07;2.95;;;2.75;;
7747;SDS011;3918;42.564;23.164;2023-05-27T11:15:33;4.25;;;2.60;;
7747;SDS011;3918;42.564;23.164;2023-05-27T11:18:01;4.22;;;3.83;;
7747;SDS011;3918;42.564;23.164;2023-05-27T11:20:33;6.10;;;3.67;;
7747;SDS011;3918;42.564;23.164;2023-05-27T11:23:03;3.70;;;3.40;;
7747;SDS011;3918;42.564;23.164;2023-05-27T11:25:40;4.13;;;3.00;;
7747;SDS011;3918;42.564;23.164;2023-05-27T11:28:14;3.65;;;3.35;;
7747;SDS011;3918;42.564;23.164;2023-05-27T11:30:42;4.20;;;3.83;;
7747;SDS011;3918;42.564;23.164;2023-05-27T11:33:09;3.70;;;3.33;;
7747;SDS011;3918;42.564;23.164;2023-05-27T11:35:36;7.95;;;4.03;;
7747;SDS011;3918;42.564;23.164;2023-05-27T11:38:04;9.13;;;3.40;;
7747;SDS011;3918;42.564;23.164;2023-05-27T11:40:34;11.57;;;4.05;;
7747;SDS011;3918;42.564;23.164;2023-05-27T11:43:02;7.55;;;3.97;;
7747;SDS011;3918;42.564;23.164;2023-05-27T11:45:29;8.15;;;3.60;;
7747;SDS011;3918;42.564;23.164;2023-05-27T11:47:56;3.20;;;2.75;;
7747;SDS011;3918;42.564;23.164;2023-05-27T11:50:24;5.03;;;2.78;;
7747;SDS011;3918;42.564;23.164;2023-05-27T11:52:52;10.20;;;3.97;;
7747;SDS011;3918;42.564;23.164;2023-05-27T11:55:21;5.15;;;3.95;;
7747;SDS011;3918;42.564;23.164;2023-05-27T11:57:48;4.65;;;4.13;;
7747;SDS011;3918;42.564;23.164;2023-05-27T12:00:16;4.22;;;3.58;;
7747;SDS011;3918;42.564;23.164;2023-05-27T12:02:44;4.18;;;3.75;;
7747;SDS011;3918;42.564;23.164;2023-05-27T12:05:11;3.88;;;3.50;;
7747;SDS011;3918;42.564;23.164;2023-05-27T12:07:38;3.58;;;3.20;;
7747;SDS011;3918;42.564;23.164;2023-05-27T12:10:06;2.90;;;2.72;;
7747;SDS011;3918;42.564;23.164;2023-05-27T12:12:36;32.67;;;4.95;;
7747;SDS011;3918;42.564;23.164;2023-05-27T12:15:04;6.30;;;2.70;;
7747;SDS011;3918;42.564;23.164;2023-05-27T12:17:31;7.93;;;2.92;;
7747;SDS011;3918;42.564;23.164;2023-05-27T12:19:58;3.05;;;2.85;;
7747;SDS011;3918;42.564;23.164;2023-05-27T12:22:25;5.00;;;2.90;;
7747;SDS011;3918;42.564;23.164;2023-05-27T12:24:52;2.63;;;2.42;;
7747;SDS011;3918;42.564;23.164;2023-05-27T12:27:19;13.80;;;3.28;;
7747;SDS011;3918;42.564;23.164;2023-05-27T12:29:47;13.40;;;3.60;;
7747;SDS011;3918;42.564;23.164;2023-05-27T12:32:14;7.60;;;2.90;;
7747;SDS011;3918;42.564;23.164;2023-05-27T12:34:41;3.20;;;2.90;;
7747;SDS011;3918;42.564;23.164;2023-05-27T12:37:08;8.48;;;2.70;;
7747;SDS011;3918;42.564;23.164;2023-05-27T12:39:35;3.20;;;2.83;;
7747;SDS011;3918;42.564;23.164;2023-05-27T12:42:02;2.67;;;2.58;;
7747;SDS011;3918;42.564;23.164;2023-05-27T12:44:29;4.07;;;2.65;;
7747;SDS011;3918;42.564;23.164;2023-05-27T12:47:06;2.65;;;2.55;;
7747;SDS011;3918;42.564;23.164;2023-05-27T12:49:33;5.00;;;2.97;;
7747;SDS011;3918;42.564;23.164;2023-05-27T12:51:59;3.85;;;2.90;;
7747;SDS011;3918;42.564;23.164;2023-05-27T12:54:28;6.85;;;2.97;;
7747;SDS011;3918;42.564;23.164;2023-05-27T12:56:55;4.78;;;2.78;;
7747;SDS011;3918;42.564;23.164;2023-05-27T12:59:22;3.22;;;3.00;;
7747;SDS011;3918;42.564;23.164;2023-05-27T13:01:49;6.07;;;2.92;;
7747;SDS011;3918;42.564;23.164;2023-05-27T13:04:17;3.78;;;2.67;;
7747;SDS011;3918;42.564;23.164;2023-05-27T13:06:44;7.10;;;3.15;;
7747;SDS011;3918;42.564;23.164;2023-05-27T13:09:11;3.10;;;2.80;;
7747;SDS011;3918;42.564;23.164;2023-05-27T13:11:38;3.00;;;2.67;;
7747;SDS011;3918;42.564;23.164;2023-05-27T13:14:05;3.08;;;2.80;;
7747;SDS011;3918;42.564;23.164;2023-05-27T13:16:32;4.25;;;3.08;;
7747;SDS011;3918;42.564;23.164;2023-05-27T13:18:59;7.03;;;3.00;;
7747;SDS011;3918;42.564;23.164;2023-05-27T13:21:27;5.95;;;2.90;;
7747;SDS011;3918;42.564;23.164;2023-05-27T13:23:54;3.22;;;2.60;;
7747;SDS011;3918;42.564;23.164;2023-05-27T13:26:21;5.32;;;3.20;;
7747;SDS011;3918;42.564;23.164;2023-05-27T13:28:48;3.15;;;2.85;;
7747;SDS011;3918;42.564;23.164;2023-05-27T13:31:15;5.75;;;2.85;;
7747;SDS011;3918;42.564;23.164;2023-05-27T13:33:42;3.63;;;3.33;;
7747;SDS011;3918;42.564;23.164;2023-05-27T13:36:09;5.80;;;3.38;;
7747;SDS011;3918;42.564;23.164;2023-05-27T13:38:37;7.22;;;3.53;;
7747;SDS011;3918;42.564;23.164;2023-05-27T13:41:04;3.35;;;3.00;;
7747;SDS011;3918;42.564;23.164;2023-05-27T13:43:31;2.63;;;2.40;;
7747;SDS011;3918;42.564;23.164;2023-05-27T13:45:57;2.97;;;2.72;;
7747;SDS011;3918;42.564;23.164;2023-05-27T13:48:25;6.10;;;2.90;;
7747;SDS011;3918;42.564;23.164;2023-05-27T13:50:51;2.97;;;2.78;;
7747;SDS011;3918;42.564;23.164;2023-05-27T13:53:18;8.35;;;3.13;;
7747;SDS011;3918;42.564;23.164;2023-05-27T13:55:46;3.33;;;3.00;;
7747;SDS011;3918;42.564;23.164;2023-05-27T13:58:13;3.47;;;2.40;;
7747;SDS011;3918;42.564;23.164;2023-05-27T14:00:40;2.72;;;2.60;;
7747;SDS011;3918;42.564;23.164;2023-05-27T14:03:07;3.80;;;3.00;;
7747;SDS011;3918;42.564;23.164;2023-05-27T14:05:34;4.05;;;2.97;;
7747;SDS011;3918;42.564;23.164;2023-05-27T14:08:01;2.42;;;2.33;;
7747;SDS011;3918;42.564;23.164;2023-05-27T14:10:28;2.70;;;2.50;;
7747;SDS011;3918;42.564;23.164;2023-05-27T14:12:57;2.92;;;2.65;;
7747;SDS011;3918;42.564;23.164;2023-05-27T14:15:24;9.18;;;3.00;;
7747;SDS011;3918;42.564;23.164;2023-05-27T14:17:53;4.18;;;2.88;;
7747;SDS011;3918;42.564;23.164;2023-05-27T14:20:19;2.45;;;2.30;;
7747;SDS011;3918;42.564;23.164;2023-05-27T14:22:46;2.83;;;2.55;;
7747;SDS011;3918;42.564;23.164;2023-05-27T14:25:13;2.70;;;2.50;;
7747;SDS011;3918;42.564;23.164;2023-05-27T14:27:41;7.13;;;2.92;;
7747;SDS011;3918;42.564;23.164;2023-05-27T14:30:09;8.68;;;3.03;;
7747;SDS011;3918;42.564;23.164;2023-05-27T14:32:36;3.00;;;2.80;;
7747;SDS011;3918;42.564;23.164;2023-05-27T14:35:03;9.95;;;2.83;;
7747;SDS011;3918;42.564;23.164;2023-05-27T14:37:31;3.63;;;3.13;;
7747;SDS011;3918;42.564;23.164;2023-05-27T14:39:57;3.20;;;2.90;;
7747;SDS011;3918;42.564;23.164;2023-05-27T14:42:24;6.13;;;2.83;;
7747;SDS011;3918;42.564;23.164;2023-05-27T14:44:51;3.08;;;2.70;;
7747;SDS011;3918;42.564;23.164;2023-05-27T14:47:19;4.40;;;3.00;;
7747;SDS011;3918;42.564;23.164;2023-05-27T14:49:46;3.83;;;2.80;;
7747;SDS011;3918;42.564;23.164;2023-05-27T14:52:13;3.42;;;3.17;;
7747;SDS011;3918;42.564;23.164;2023-05-27T14:54:40;6.13;;;3.45;;
7747;SDS011;3918;42.564;23.164;2023-05-27T14:57:07;5.53;;;2.90;;
7747;SDS011;3918;42.564;23.164;2023-05-27T14:59:34;5.28;;;3.45;;
7747;SDS011;3918;42.564;23.164;2023-05-27T15:02:00;5.47;;;3.55;;
7747;SDS011;3918;42.564;23.164;2023-05-27T15:04:29;6.90;;;3.58;;
7747;SDS011;3918;42.564;23.164;2023-05-27T15:06:56;3.83;;;3.50;;
7747;SDS011;3918;42.564;23.164;2023-05-27T15:09:23;4.43;;;1.95;;
7747;SDS011;3918;42.564;23.164;2023-05-27T15:11:50;4.60;;;3.30;;
7747;SDS011;3918;42.564;23.164;2023-05-27T15:14:16;5.93;;;3.85;;
7747;SDS011;3918;42.564;23.164;2023-05-27T15:16:43;7.65;;;3.55;;
7747;SDS011;3918;42.564;23.164;2023-05-27T15:19:10;4.28;;;3.88;;
7747;SDS011;3918;42.564;23.164;2023-05-27T15:21:38;3.17;;;2.97;;
7747;SDS011;3918;42.564;23.164;2023-05-27T15:24:05;4.47;;;3.13;;
7747;SDS011;3918;42.564;23.164;2023-05-27T15:26:32;3.15;;;2.95;;
7747;SDS011;3918;42.564;23.164;2023-05-27T15:28:59;12.45;;;3.60;;
7747;SDS011;3918;42.564;23.164;2023-05-27T15:31:25;5.18;;;3.17;;
7747;SDS011;3918;42.564;23.164;2023-05-27T15:33:53;3.15;;;2.95;;
7747;SDS011;3918;42.564;23.164;2023-05-27T15:36:20;3.17;;;2.97;;
7747;SDS011;3918;42.564;23.164;2023-05-27T15:38:48;7.65;;;3.72;;
7747;SDS011;3918;42.564;23.164;2023-05-27T15:41:15;3.95;;;3.45;;
7747;SDS011;3918;42.564;23.164;2023-05-27T15:43:42;5.60;;;3.45;;
7747;SDS011;3918;42.564;23.164;2023-05-27T15:46:08;5.90;;;3.70;;
7747;SDS011;3918;42.564;23.164;2023-05-27T15:48:35;3.70;;;3.35;;
7747;SDS011;3918;42.564;23.164;2023-05-27T15:51:02;8.38;;;3.70;;
7747;SDS011;3918;42.564;23.164;2023-05-27T15:53:30;3.97;;;3.67;;
7747;SDS011;3918;42.564;23.164;2023-05-27T15:55:59;5.38;;;3.90;;
7747;SDS011;3918;42.564;23.164;2023-05-27T15:58:25;3.58;;;3.38;;
7747;SDS011;3918;42.564;23.164;2023-05-27T16:00:52;5.45;;;3.63;;
7747;SDS011;3918;42.564;23.164;2023-05-27T16:03:19;5.00;;;3.83;;
7747;SDS011;3918;42.564;23.164;2023-05-27T16:05:46;5.72;;;3.70;;
7747;SDS011;3918;42.564;23.164;2023-05-27T16:08:13;3.50;;;3.22;;
7747;SDS011;3918;42.564;23.164;2023-05-27T16:10:43;7.15;;;3.40;;
7747;SDS011;3918;42.564;23.164;2023-05-27T16:13:12;3.95;;;3.47;;
7747;SDS011;3918;42.564;23.164;2023-05-27T16:15:39;4.18;;;3.85;;
7747;SDS011;3918;42.564;23.164;2023-05-27T16:18:06;4.50;;;3.88;;
7747;SDS011;3918;42.564;23.164;2023-05-27T16:20:33;3.75;;;3.45;;
7747;SDS011;3918;42.564;23.164;2023-05-27T16:22:59;28.63;;;4.93;;
7747;SDS011;3918;42.564;23.164;2023-05-27T16:25:26;5.75;;;4.15;;
7747;SDS011;3918;42.564;23.164;2023-05-27T16:27:53;5.97;;;3.67;;
7747;SDS011;3918;42.564;23.164;2023-05-27T16:30:21;4.78;;;4.38;;
7747;SDS011;3918;42.564;23.164;2023-05-27T16:32:48;4.00;;;3.70;;
7747;SDS011;3918;42.564;23.164;2023-05-27T16:35:17;5.70;;;4.25;;
7747;SDS011;3918;42.564;23.164;2023-05-27T16:37:44;4.65;;;4.25;;
7747;SDS011;3918;42.564;23.164;2023-05-27T16:40:12;3.72;;;3.38;;
7747;SDS011;3918;42.564;23.164;2023-05-27T16:42:40;6.28;;;4.47;;
7747;SDS011;3918;42.564;23.164;2023-05-27T16:45:07;4.65;;;3.65;;
7747;SDS011;3918;42.564;23.164;2023-05-27T16:47:36;5.70;;;4.55;;
7747;SDS011;3918;42.564;23.164;2023-05-27T16:50:03;5.03;;;3.90;;
7747;SDS011;3918;42.564;23.164;2023-05-27T16:52:30;4.70;;;3.75;;
7747;SDS011;3918;42.564;23.164;2023-05-27T16:54:57;6.15;;;4.60;;
7747;SDS011;3918;42.564;23.164;2023-05-27T16:57:24;5.72;;;4.25;;
7747;SDS011;3918;42.564;23.164;2023-05-27T16:59:51;4.97;;;3.72;;
7747;SDS011;3918;42.564;23.164;2023-05-27T17:02:18;4.55;;;4.00;;
7747;SDS011;3918;42.564;23.164;2023-05-27T17:04:46;4.10;;;3.80;;
7747;SDS011;3918;42.564;23.164;2023-05-27T17:07:13;3.50;;;3.20;;
7747;SDS011;3918;42.564;23.164;2023-05-27T17:09:39;6.32;;;4.70;;
7747;SDS011;3918;42.564;23.164;2023-05-27T17:12:06;8.45;;;4.65;;
7747;SDS011;3918;42.564;23.164;2023-05-27T17:14:34;5.05;;;4.55;;
7747;SDS011;3918;42.564;23.164;2023-05-27T17:17:02;7.60;;;4.72;;
7747;SDS011;3918;42.564;23.164;2023-05-27T17:19:28;5.95;;;5.15;;
7747;SDS011;3918;42.564;23.164;2023-05-27T17:21:57;6.18;;;4.93;;
7747;SDS011;3918;42.564;23.164;2023-05-27T17:24:24;4.80;;;4.40;;
7747;SDS011;3918;42.564;23.164;2023-05-27T17:26:51;4.68;;;3.80;;
7747;SDS011;3918;42.564;23.164;2023-05-27T17:29:18;5.70;;;4.88;;
7747;SDS011;3918;42.564;23.164;2023-05-27T17:31:44;7.78;;;4.97;;
7747;SDS011;3918;42.564;23.164;2023-05-27T17:34:11;4.95;;;4.43;;
7747;SDS011;3918;42.564;23.164;2023-05-27T17:36:38;6.78;;;5.40;;
7747;SDS011;3918;42.564;23.164;2023-05-27T17:39:06;6.88;;;5.38;;
7747;SDS011;3918;42.564;23.164;2023-05-27T17:41:34;6.68;;;5.97;;
7747;SDS011;3918;42.564;23.164;2023-05-27T17:44:01;8.55;;;5.72;;
7747;SDS011;3918;42.564;23.164;2023-05-27T17:46:27;6.10;;;5.45;;
7747;SDS011;3918;42.564;23.164;2023-05-27T17:48:55;10.88;;;6.10;;
7747;SDS011;3918;42.564;23.164;2023-05-27T17:51:22;7.35;;;5.78;;
7747;SDS011;3918;42.564;23.164;2023-05-27T17:53:49;8.63;;;5.90;;
7747;SDS011;3918;42.564;23.164;2023-05-27T17:56:19;6.97;;;6.28;;
7747;SDS011;3918;42.564;23.164;2023-05-27T17:58:45;7.03;;;5.82;;
7747;SDS011;3918;42.564;23.164;2023-05-27T18:01:12;8.30;;;5.82;;
7747;SDS011;3918;42.564;23.164;2023-05-27T18:03:39;8.85;;;6.47;;
7747;SDS011;3918;42.564;23.164;2023-05-27T18:06:06;6.13;;;5.50;;
7747;SDS011;3918;42.564;23.164;2023-05-27T18:08:33;6.63;;;5.55;;
7747;SDS011;3918;42.564;23.164;2023-05-27T18:11:00;8.38;;;6.68;;
7747;SDS011;3918;42.564;23.164;2023-05-27T18:13:28;7.57;;;6.55;;
7747;SDS011;3918;42.564;23.164;2023-05-27T18:15:55;6.25;;;5.65;;
7747;SDS011;3918;42.564;23.164;2023-05-27T18:18:22;7.15;;;6.13;;
7747;SDS011;3918;42.564;23.164;2023-05-27T18:20:49;6.78;;;6.00;;
7747;SDS011;3918;42.564;23.164;2023-05-27T18:23:17;8.32;;;6.45;;
7747;SDS011;3918;42.564;23.164;2023-05-27T18:25:44;10.52;;;6.65;;
7747;SDS011;3918;42.564;23.164;2023-05-27T18:28:11;8.35;;;6.90;;
7747;SDS011;3918;42.564;23.164;2023-05-27T18:30:39;8.85;;;7.93;;
7747;SDS011;3918;42.564;23.164;2023-05-27T18:33:06;10.07;;;7.32;;
7747;SDS011;3918;42.564;23.164;2023-05-27T18:35:33;11.95;;;7.40;;
7747;SDS011;3918;42.564;23.164;2023-05-27T18:38:00;11.07;;;7.72;;
7747;SDS011;3918;42.564;23.164;2023-05-27T18:40:27;8.60;;;7.35;;
7747;SDS011;3918;42.564;23.164;2023-05-27T18:42:54;10.13;;;8.57;;
7747;SDS011;3918;42.564;23.164;2023-05-27T18:45:23;10.25;;;8.13;;
7747;SDS011;3918;42.564;23.164;2023-05-27T18:47:52;8.32;;;7.53;;
7747;SDS011;3918;42.564;23.164;2023-05-27T18:50:19;9.48;;;8.40;;
7747;SDS011;3918;42.564;23.164;2023-05-27T18:52:45;9.23;;;7.80;;
7747;SDS011;3918;42.564;23.164;2023-05-27T18:55:12;12.00;;;9.18;;
7747;SDS011;3918;42.564;23.164;2023-05-27T18:57:39;9.98;;;8.80;;
7747;SDS011;3918;42.564;23.164;2023-05-27T19:00:06;11.73;;;9.05;;
